METAR UND TAF INFORMATION
NFFN 180100Z 26009KT 9999 SCT028 31/23 Q1007 NOSIG

 FLUGHAFENKARTE

 RUNWAY INFORMATION
Runway 02 Runway length 10739 ft Runway width 150 ft
Runway elevation 26 ft Runway displaced threshold 280 ft Runway heading 38
Runway 20 Runway length 10739 ft Runway width 150 ft
Runway elevation 41 ft Runway displaced threshold 0 ft Runway heading 218
Runway 09 Runway length 7007 ft Runway width 150 ft
Runway elevation 17 ft Runway displaced threshold 0 ft Runway heading 104
Runway 27 Runway length 7007 ft Runway width 150 ft
Runway elevation 59 ft Runway displaced threshold 0 ft Runway heading 284

 AIRPORT FREQUENCIES
Type A/G Name RDO Frequency 346.7 MHZ
Type ACC Name FIS Frequency 126.7 MHZ
Type APP Name APP Frequency 119.1 MHZ
Type ATIS Name TRML INFO Frequency 127.9 MHZ
Type GND Name GND Frequency 118.1 MHZ
Type TWR Name TWR Frequency 118.1 MHZ

 AIRPORT NEAR NAVIGATION AIDS
Type NDB Name Malolo Frequency 385 KHZ
Type NDB Name Momi Frequency 364 KHZ
Type VOR-DME Name Nadi Frequency 112500 KHZ
Type NDB Name Navakai Frequency 405 KHZ



Aktuelle Version 4.2: Changelog

Impressum | Datenschutzerklärung

Powered by Cedric Balogh | Virtual Airlines Manager